Time;durP1;ratioP1;P1;durP2;ratioP2;P2;SDS_P1;SDS_P2;PMS_P1;PMS_P2;Temp;Humidity;BMP_temperature;BMP_pressure;BME280_temperature;BME280_humidity;BME280_pressure;Samples;Min_cycle;Max_cycle;Signal;HPM_P1;HPM_P2
2022/08/16 11:41:46;;;;;;;2.25;2.03;;;;;;;34.11;34.84;100343.53;5076860;23;21020;-76
2022/08/16 11:44:19;;;;;;;3.13;1.92;;;;;;;34.06;34.36;100351.81;4862297;29;20098;-76
2022/08/16 11:47:08;;;;;;;2.55;1.98;;;;;;;34.10;36.01;100349.69;4859663;29;20041;-77
2022/08/16 11:49:36;;;;;;;2.20;2.00;;;;;;;33.64;35.11;100350.50;4874838;29;20056;-76
2022/08/16 11:52:04;;;;;;;3.10;1.98;;;;;;;33.68;35.43;100342.69;4877453;29;20049;-76
2022/08/16 11:54:32;;;;;;;3.05;2.05;;;;;;;33.52;35.90;100329.31;4873698;29;20056;-76
2022/08/16 11:57:04;;;;;;;2.47;2.20;;;;;;;33.68;36.70;100336.22;4878121;29;20408;-76
2022/08/16 11:59:37;;;;;;;9.90;2.20;;;;;;;33.56;36.51;100329.25;4877955;29;20389;-76
2022/08/16 12:02:08;;;;;;;2.30;2.00;;;;;;;33.43;36.21;100337.66;4877665;29;20056;-76
2022/08/16 12:04:56;;;;;;;2.35;2.03;;;;;;;33.59;36.15;100331.19;4877435;29;20057;-76
2022/08/16 12:07:23;;;;;;;2.65;1.77;;;;;;;34.00;36.72;100329.63;4877157;29;20064;-77
2022/08/16 12:09:52;;;;;;;3.00;2.15;;;;;;;33.82;36.09;100320.84;4853590;29;20061;-77
2022/08/16 12:12:21;;;;;;;2.08;1.70;;;;;;;34.04;36.72;100327.53;4873259;29;20053;-77
2022/08/16 12:14:50;;;;;;;2.38;1.85;;;;;;;33.81;35.98;100322.09;4872700;29;20045;-77
2022/08/16 12:17:29;;;;;;;3.13;2.30;;;;;;;34.10;35.30;100321.28;4864993;29;20057;-77
2022/08/16 12:20:04;;;;;;;2.88;1.85;;;;;;;34.13;35.23;100324.03;4877550;29;20139;-77
2022/08/16 12:22:36;;;;;;;2.33;1.88;;;;;;;33.71;35.30;100312.63;4877822;29;20071;-77
2022/08/16 12:25:10;;;;;;;2.88;1.75;;;;;;;33.96;36.70;100319.63;4871375;29;20408;-77
2022/08/16 12:27:39;;;;;;;2.88;1.73;;;;;;;33.49;37.38;100325.34;4877329;29;20087;-77
2022/08/16 12:30:10;;;;;;;3.10;1.73;;;;;;;33.56;37.10;100320.75;4877120;29;20424;-77
2022/08/16 12:32:58;;;;;;;3.28;2.10;;;;;;;33.72;35.80;100320.69;4878006;29;20405;-77
2022/08/16 12:35:31;;;;;;;3.08;2.08;;;;;;;33.66;36.89;100322.47;4874417;29;20069;-77
2022/08/16 12:40:07;;;;;;;2.03;1.92;;;;;;;33.21;38.40;100322.00;5109549;27;20413;-76
2022/08/16 12:42:53;;;;;;;2.40;2.20;;;;;;;33.74;36.55;100317.41;5095345;28;20545;-77
2022/08/16 12:45:28;;;;;;;2.97;2.25;;;;;;;33.94;36.11;100314.41;5083815;28;20048;-77
2022/08/16 12:51:17;;;;;;;3.20;2.00;;;;;;;33.86;35.46;100318.72;5092951;28;20044;-76
2022/08/16 12:54:08;;;;;;;2.00;1.80;;;;;;;33.95;35.68;100313.16;5083742;28;20048;-76
2022/08/16 12:56:41;;;;;;;2.45;2.15;;;;;;;34.20;35.31;100305.19;5104533;28;20044;-77
2022/08/16 12:59:10;;;;;;;2.10;1.95;;;;;;;33.59;35.75;100308.50;5109430;28;20070;-76
2022/08/16 13:01:46;;;;;;;2.03;1.83;;;;;;;33.76;35.09;100309.22;5109182;28;20052;-77
2022/08/16 13:04:18;;;;;;;3.50;2.13;;;;;;;33.71;34.98;100296.41;5109111;28;20417;-77
2022/08/16 13:06:54;;;;;;;2.60;2.40;;;;;;;34.27;34.77;100302.13;5109387;28;20066;-77
2022/08/16 13:09:23;;;;;;;2.25;2.05;;;;;;;34.35;34.27;100299.84;5108485;28;20050;-77
2022/08/16 13:12:04;;;;;;;1.80;1.70;;;;;;;34.48;32.73;100303.50;5097345;28;20079;-77
2022/08/16 13:14:38;;;;;;;2.42;1.88;;;;;;;34.78;34.41;100295.66;5122502;28;20036;-77
2022/08/16 13:17:14;;;;;;;2.53;2.03;;;;;;;34.66;33.51;100288.75;5109313;28;20398;-77
2022/08/16 13:19:50;;;;;;;2.13;1.92;;;;;;;34.51;34.25;100282.72;5100036;28;20047;-77
2022/08/16 13:22:42;;;;;;;2.35;1.88;;;;;;;34.82;35.29;100290.66;5100762;28;20378;-77
2022/08/16 13:25:14;;;;;;;2.15;1.95;;;;;;;34.49;33.19;100285.19;5106074;28;20066;-78
2022/08/16 13:27:53;;;;;;;2.03;1.88;;;;;;;34.83;34.09;100283.72;5108889;28;20055;-77
2022/08/16 13:30:35;;;;;;;1.98;1.80;;;;;;;34.83;33.05;100286.56;5108667;28;20052;-78
2022/08/16 13:33:16;;;;;;;2.55;2.00;;;;;;;34.89;34.04;100283.16;5098718;28;20047;-77
2022/08/16 13:35:59;;;;;;;3.17;2.88;;;;;;;34.06;34.24;100287.31;5108700;28;20051;-77
2022/08/16 13:38:29;;;;;;;3.75;2.13;;;;;;;34.15;34.43;100278.94;5108810;28;20056;-77
2022/08/16 13:41:07;;;;;;;2.58;1.83;;;;;;;34.38;35.02;100274.19;5108475;28;20498;-77
2022/08/16 13:43:37;;;;;;;4.53;2.38;;;;;;;34.38;33.92;100279.88;5108797;28;20059;-77
2022/08/16 13:46:06;;;;;;;2.05;1.95;;;;;;;34.85;34.87;100275.53;5108904;28;20051;-77
2022/08/16 13:48:35;;;;;;;2.40;2.13;;;;;;;35.11;34.35;100281.19;5108764;28;20051;-77
2022/08/16 13:51:15;;;;;;;4.05;2.40;;;;;;;34.75;32.94;100268.19;5096374;28;20098;-76
2022/08/16 13:53:48;;;;;;;2.38;1.92;;;;;;;35.14;34.31;100258.78;5094897;28;20047;-77
2022/08/16 13:56:32;;;;;;;2.53;2.08;;;;;;;35.11;33.68;100266.19;5094945;28;20048;-77
2022/08/16 13:59:08;;;;;;;2.03;1.80;;;;;;;35.05;33.50;100268.81;5094708;28;20386;-77
2022/08/16 14:01:53;;;;;;;3.97;1.55;;;;;;;35.22;33.84;100260.09;5094034;28;20052;-77
2022/08/16 14:04:28;;;;;;;2.03;1.92;;;;;;;35.46;33.27;100271.03;5085086;28;20490;-77
2022/08/16 14:06:59;;;;;;;3.13;2.10;;;;;;;35.10;34.03;100265.38;5089203;28;20059;-77
2022/08/16 14:09:29;;;;;;;2.28;2.10;;;;;;;35.32;33.87;100270.31;5083252;28;20052;-76
2022/08/16 14:11:59;;;;;;;6.43;1.85;;;;;;;35.25;34.83;100259.97;5094515;28;20051;-77
2022/08/16 14:26:33;;;;;;;2.55;2.08;;;;;;;34.17;34.96;100248.03;5069200;27;20736;-77
2022/08/16 14:29:01;;;;;;;3.20;2.50;;;;;;;34.37;34.42;100252.72;5068456;28;20049;-77
2022/08/16 14:31:30;;;;;;;3.33;2.40;;;;;;;34.58;34.23;100251.25;5067358;28;20072;-77
2022/08/16 14:34:03;;;;;;;3.30;1.90;;;;;;;34.93;34.40;100249.69;5069284;28;20813;-77
2022/08/16 14:36:32;;;;;;;3.47;2.20;;;;;;;34.83;33.21;100252.47;5066268;28;20048;-77
2022/08/16 14:39:00;;;;;;;2.33;2.13;;;;;;;34.80;33.95;100255.44;5064523;28;20402;-77
2022/08/16 14:41:28;;;;;;;2.65;2.05;;;;;;;34.79;33.08;100251.78;5054208;28;20048;-77
2022/08/16 14:43:57;;;;;;;2.33;2.00;;;;;;;34.78;33.31;100252.22;5068726;28;20514;-77
2022/08/16 14:46:24;;;;;;;2.63;2.03;;;;;;;34.46;33.21;100246.34;5058275;28;20406;-76
2022/08/16 14:48:52;;;;;;;3.63;1.98;;;;;;;34.64;33.91;100251.47;5068650;28;20045;-77
2022/08/16 14:51:20;;;;;;;2.35;2.15;;;;;;;34.61;34.14;100251.59;5069345;28;20056;-77
2022/08/16 14:53:53;;;;;;;3.53;1.98;;;;;;;34.75;32.44;100236.94;5062917;28;20049;-77
2022/08/16 14:56:22;;;;;;;1.85;1.73;;;;;;;34.42;33.11;100240.78;5060414;28;20048;-77
2022/08/16 14:59:10;;;;;;;2.28;1.95;;;;;;;34.42;33.50;100240.00;5068518;28;20029;-76
2022/08/16 15:01:38;;;;;;;3.10;2.25;;;;;;;34.29;32.90;100237.94;5068081;28;20057;-76
2022/08/16 15:04:29;;;;;;;2.85;2.63;;;;;;;34.41;33.90;100232.72;5052077;28;20045;-77
2022/08/16 15:07:21;;;;;;;3.00;2.25;;;;;;;34.49;33.49;100233.28;5051216;28;20053;-76
2022/08/16 15:09:49;;;;;;;2.10;2.00;;;;;;;34.33;33.03;100232.16;5068556;28;20044;-76
2022/08/16 15:12:29;;;;;;;2.90;2.38;;;;;;;34.03;33.72;100237.09;5068042;28;20053;-77
2022/08/16 15:15:04;;;;;;;2.85;2.20;;;;;;;34.14;33.40;100233.97;5067774;28;20056;-77
2022/08/16 15:17:44;;;;;;;3.47;2.13;;;;;;;34.03;33.39;100237.91;5068114;28;20045;-77
2022/08/16 15:20:22;;;;;;;2.20;1.90;;;;;;;33.88;33.96;100239.59;5068011;28;20060;-77
2022/08/16 15:22:54;;;;;;;5.88;2.75;;;;;;;33.87;33.28;100238.78;5056407;28;20040;-77
2022/08/16 15:25:32;;;;;;;6.13;2.45;;;;;;;33.98;33.91;100235.63;5059826;28;20056;-77
2022/08/16 15:28:10;;;;;;;2.67;2.20;;;;;;;33.90;33.82;100235.06;5064007;28;20490;-77
2022/08/16 15:30:57;;;;;;;2.72;2.13;;;;;;;33.63;33.37;100229.78;5067394;28;20053;-77
2022/08/16 15:33:32;;;;;;;4.15;2.33;;;;;;;33.77;34.27;100231.41;5068032;28;20041;-77
2022/08/16 15:36:01;;;;;;;2.67;2.20;;;;;;;33.79;33.68;100231.75;5064926;28;20505;-77
2022/08/16 15:38:29;;;;;;;4.28;2.13;;;;;;;33.40;34.20;100228.75;5054671;28;20056;-77
2022/08/16 15:41:38;;;;;;;2.40;2.20;;;;;;;33.47;33.46;100224.94;5052594;28;20592;-77
2022/08/16 15:44:12;;;;;;;2.40;1.90;;;;;;;33.46;33.96;100238.31;5054318;28;20057;-77
2022/08/16 15:46:40;;;;;;;2.53;2.28;;;;;;;33.39;34.20;100235.69;5054044;28;20553;-77
2022/08/16 15:49:25;;;;;;;2.25;2.10;;;;;;;33.15;35.00;100233.09;5054023;28;20049;-77
2022/08/16 15:52:18;;;;;;;2.70;1.92;;;;;;;33.34;35.15;100239.06;5054258;28;20395;-77
2022/08/16 15:54:48;;;;;;;2.40;2.20;;;;;;;33.34;34.43;100228.50;5053051;28;20049;-76
2022/08/16 15:57:23;;;;;;;2.03;1.92;;;;;;;33.11;35.35;100226.72;5054716;28;20044;-77
2022/08/16 15:59:51;;;;;;;3.92;1.90;;;;;;;33.09;34.82;100227.16;5048681;28;20056;-77
2022/08/16 16:02:38;;;;;;;3.40;2.45;;;;;;;33.18;34.13;100223.69;5053786;28;20072;-77
2022/08/16 16:05:08;;;;;;;1.98;1.88;;;;;;;33.14;33.59;100225.84;5054047;28;20052;-77
2022/08/16 16:07:38;;;;;;;2.90;2.42;;;;;;;33.00;34.63;100221.34;5041097;28;20069;-77
2022/08/16 16:10:25;;;;;;;3.58;2.10;;;;;;;33.01;34.93;100216.44;5026416;28;20050;-77
2022/08/16 16:12:59;;;;;;;2.22;2.03;;;;;;;32.74;35.14;100209.81;5022111;28;20480;-77
2022/08/16 16:15:30;;;;;;;3.08;2.05;;;;;;;32.83;35.41;100214.84;5028960;28;20057;-77
2022/08/16 16:17:58;;;;;;;2.40;2.15;;;;;;;32.88;34.64;100222.03;5032420;28;20042;-77
2022/08/16 16:20:52;;;;;;;2.38;2.00;;;;;;;32.83;35.84;100217.69;5028720;28;20053;-77
2022/08/16 16:23:27;;;;;;;2.33;1.75;;;;;;;32.85;35.20;100221.66;5033144;28;20407;-77
2022/08/16 16:25:57;;;;;;;2.38;2.08;;;;;;;32.94;35.62;100223.09;5032749;28;20067;-77
2022/08/16 16:28:28;;;;;;;3.10;2.20;;;;;;;32.92;34.78;100223.53;5025832;28;20041;-77
2022/08/16 16:31:18;;;;;;;6.13;2.42;;;;;;;32.96;35.25;100221.44;5033465;28;20046;-76
2022/08/16 16:33:50;;;;;;;2.60;2.00;;;;;;;32.78;34.48;100221.06;5031060;28;20048;-77
2022/08/16 16:36:21;;;;;;;;;;;;;;;32.74;35.33;100218.31;5033295;28;20042;-77
2022/08/16 16:38:55;;;;;;;3.90;2.13;;;;;;;32.75;35.43;100224.78;5032049;28;19921;-77
2022/08/16 16:41:26;;;;;;;2.83;2.20;;;;;;;32.85;35.62;100224.50;5032479;28;20041;-77
2022/08/16 16:43:55;;;;;;;2.17;1.98;;;;;;;32.73;35.46;100218.78;5028694;28;20782;-77
2022/08/16 16:46:25;;;;;;;4.70;2.45;;;;;;;32.75;35.22;100227.63;5030946;28;20100;-77
2022/08/16 16:49:11;;;;;;;6.72;1.80;;;;;;;32.45;34.14;100210.53;5031852;28;20484;-76
2022/08/16 16:51:41;;;;;;;4.50;2.25;;;;;;;32.64;34.76;100214.50;5032647;28;20072;-77
2022/08/16 16:54:15;;;;;;;2.10;1.90;;;;;;;32.73;35.49;100213.09;5032609;28;20064;-76
2022/08/16 16:56:56;;;;;;;3.88;2.13;;;;;;;32.58;35.10;100208.59;5032289;28;20056;-77
2022/08/16 16:59:25;;;;;;;4.75;2.20;;;;;;;32.62;35.29;100219.03;5022875;28;20045;-77
2022/08/16 17:01:57;;;;;;;2.85;2.15;;;;;;;32.58;35.26;100219.13;5027748;28;20405;-77
2022/08/16 17:04:46;;;;;;;4.22;2.55;;;;;;;32.67;35.02;100213.63;5032564;28;20384;-77
2022/08/16 17:07:14;;;;;;;2.80;2.38;;;;;;;32.62;35.17;100217.00;5032309;28;20045;-78
2022/08/16 17:09:45;;;;;;;2.72;2.50;;;;;;;32.57;35.44;100220.34;5032529;28;20058;-77
2022/08/16 17:12:13;;;;;;;3.55;3.17;;;;;;;32.42;34.94;100223.56;5031797;28;20050;-78
2022/08/16 17:15:04;;;;;;;3.95;3.30;;;;;;;32.57;35.16;100226.03;5032039;28;20061;-78
2022/08/16 17:17:33;;;;;;;5.53;4.60;;;;;;;32.46;35.71;100226.28;5031977;28;20076;-78
2022/08/16 17:20:22;;;;;;;4.82;3.95;;;;;;;32.55;34.90;100222.84;5025630;28;20060;-77
2022/08/16 17:22:54;;;;;;;4.50;3.85;;;;;;;32.51;34.82;100220.09;5026894;28;20052;-77
2022/08/16 17:25:24;;;;;;;3.90;3.45;;;;;;;32.47;35.68;100222.22;5030355;28;20057;-77
2022/08/16 17:28:14;;;;;;;3.78;3.17;;;;;;;32.44;35.30;100226.72;5031601;28;20072;-77
2022/08/16 17:31:03;;;;;;;4.40;3.33;;;;;;;32.36;34.91;100225.28;5032103;28;20061;-77
2022/08/16 17:33:31;;;;;;;4.63;4.10;;;;;;;32.38;35.26;100236.94;5031636;28;20053;-77
2022/08/16 17:36:05;;;;;;;10.02;8.40;;;;;;;32.47;35.74;100218.56;5031804;28;20042;-77
2022/08/16 17:38:35;;;;;;;15.10;8.98;;;;;;;32.48;35.98;100231.50;5032217;28;20064;-77
2022/08/16 17:41:11;;;;;;;8.85;5.43;;;;;;;32.49;35.11;100230.28;5031696;28;20053;-77
2022/08/16 17:43:41;;;;;;;5.13;3.50;;;;;;;32.45;35.23;100224.69;5032160;28;20056;-77
2022/08/16 17:46:13;;;;;;;4.70;3.80;;;;;;;32.49;35.46;100225.41;5032132;28;20056;-77
2022/08/16 17:49:01;;;;;;;11.30;5.30;;;;;;;32.42;35.34;100229.22;5032247;28;20044;-77
2022/08/16 17:51:29;;;;;;;5.43;3.58;;;;;;;32.43;35.23;100236.47;5048774;28;20684;-77
2022/08/16 17:53:57;;;;;;;6.45;3.45;;;;;;;32.46;34.82;100237.63;5051627;28;20499;-77
2022/08/16 17:56:24;;;;;;;7.32;3.85;;;;;;;32.41;35.38;100238.91;5051729;28;20064;-77
2022/08/16 17:58:52;;;;;;;9.98;6.80;;;;;;;32.40;35.62;100234.50;5051406;28;20057;-77
2022/08/16 18:01:25;;;;;;;7.95;5.28;;;;;;;32.29;36.03;100236.75;5051771;28;20060;-77
2022/08/16 18:03:53;;;;;;;11.82;7.22;;;;;;;32.27;35.73;100247.72;5051649;28;20052;-77
2022/08/16 18:06:38;;;;;;;14.25;7.55;;;;;;;32.26;36.44;100241.25;5051963;28;20056;-77
2022/08/16 18:09:06;;;;;;;12.30;6.88;;;;;;;32.14;36.24;100242.75;5051567;28;20036;-78
2022/08/16 18:11:41;;;;;;;9.23;6.10;;;;;;;32.14;36.34;100254.06;5051722;28;20427;-77
2022/08/16 18:14:13;;;;;;;11.35;4.10;;;;;;;32.01;35.90;100251.09;5047051;28;20044;-78
2022/08/16 18:16:43;;;;;;;14.40;8.23;;;;;;;32.06;38.35;100255.47;5051385;28;20061;-78
2022/08/16 18:19:10;;;;;;;11.40;7.07;;;;;;;32.11;37.61;100246.44;5049210;28;20052;-77
2022/08/16 18:24:42;;;;;;;7.55;5.90;;;;;;;32.07;37.54;100244.94;5018928;28;20057;-77
2022/08/16 18:27:11;;;;;;;6.18;4.82;;;;;;;31.90;37.20;100248.53;5031196;28;20480;-77
2022/08/16 18:29:53;;;;;;;9.43;6.22;;;;;;;31.84;37.57;100252.25;5018564;28;20061;-78
2022/08/16 18:32:21;;;;;;;9.43;4.93;;;;;;;31.70;38.52;100256.97;5031052;28;20042;-78
2022/08/16 18:34:52;;;;;;;9.40;6.22;;;;;;;31.69;38.25;100268.72;5019376;28;20041;-85
2022/08/16 18:37:24;;;;;;;6.53;4.82;;;;;;;31.66;39.14;100258.28;5031610;28;20048;-85
2022/08/16 18:39:51;;;;;;;8.07;5.60;;;;;;;31.56;38.64;100266.53;5030959;28;20060;-85
2022/08/16 18:42:19;;;;;;;12.02;7.57;;;;;;;31.44;38.14;100270.00;5031588;28;20046;-85
2022/08/16 18:44:47;;;;;;;31.60;20.40;;;;;;;31.43;39.36;100277.72;5030926;28;20048;-85
2022/08/16 18:47:15;;;;;;;11.18;8.27;;;;;;;31.45;38.45;100272.41;5030352;28;20112;-85
2022/08/16 18:49:43;;;;;;;12.30;9.85;;;;;;;31.26;38.88;100276.78;5029929;28;20053;-85
2022/08/16 18:52:14;;;;;;;10.85;6.75;;;;;;;31.43;38.50;100274.88;5031041;28;20037;-84
2022/08/16 18:56:08;;;;;;;17.48;12.68;;;;;;;31.37;38.46;100276.59;4976760;27;4776256;-85
2022/08/16 18:58:36;;;;;;;17.35;13.38;;;;;;;31.44;38.57;100282.13;5129848;28;20047;-84
2022/08/16 19:01:04;;;;;;;15.48;9.75;;;;;;;31.40;37.93;100291.88;5119157;28;20050;-84
2022/08/16 19:03:32;;;;;;;10.35;6.68;;;;;;;31.35;38.48;100284.72;5122465;28;20054;-85
2022/08/16 19:06:04;;;;;;;15.20;9.48;;;;;;;31.28;38.15;100279.97;5129571;28;20501;-86
2022/08/16 19:08:35;;;;;;;12.13;7.28;;;;;;;31.26;38.78;100282.41;5126055;28;20047;-80
2022/08/16 19:11:06;;;;;;;15.00;8.98;;;;;;;31.07;39.88;100281.94;5128608;28;20397;-80
2022/08/16 19:13:35;;;;;;;9.45;6.03;;;;;;;30.92;39.41;100283.41;5128915;28;20046;-81
2022/08/16 19:16:03;;;;;;;10.98;7.30;;;;;;;30.68;39.73;100284.19;5127151;28;20051;-81
2022/08/16 19:18:32;;;;;;;6.32;3.53;;;;;;;30.79;39.59;100284.00;5128810;28;20074;-80
2022/08/16 19:21:05;;;;;;;4.45;3.00;;;;;;;30.55;40.54;100285.97;5129031;28;20043;-80
2022/08/16 19:23:34;;;;;;;7.75;3.05;;;;;;;30.46;41.05;100294.97;5129107;28;20405;-80
2022/08/16 19:26:07;;;;;;;4.55;3.00;;;;;;;30.39;40.97;100295.88;5128617;28;20048;-80
2022/08/16 19:28:43;;;;;;;2.58;2.38;;;;;;;30.27;41.86;100299.25;5116750;28;20067;-79
2022/08/16 19:31:32;;;;;;;23.30;12.73;;;;;;;30.15;43.68;100312.72;5116209;28;20050;-79
2022/08/16 19:34:02;;;;;;;30.90;18.85;;;;;;;30.09;42.41;100305.13;5127912;28;20054;-80
2022/08/16 19:36:33;;;;;;;6.07;3.60;;;;;;;30.08;42.55;100315.59;5126010;28;20051;-80
2022/08/16 19:39:09;;;;;;;5.68;4.80;;;;;;;29.93;42.42;100314.97;5116279;28;20052;-80
2022/08/16 19:41:42;;;;;;;4.40;4.00;;;;;;;30.06;43.30;100322.88;5115654;28;20044;-81
2022/08/16 19:44:10;;;;;;;8.88;3.53;;;;;;;29.90;43.48;100324.25;5125427;28;20047;-80
2022/08/16 19:46:42;;;;;;;5.28;4.60;;;;;;;29.91;43.89;100331.53;5109449;28;20047;-79
2022/08/16 19:49:20;;;;;;;8.23;3.72;;;;;;;29.76;44.00;100328.84;5128735;28;20051;-80
2022/08/16 19:52:12;;;;;;;5.32;4.13;;;;;;;29.73;44.19;100332.53;5128587;28;20050;-79
2022/08/16 19:54:44;;;;;;;9.55;4.38;;;;;;;29.52;45.00;100332.72;5121950;28;20059;-79
2022/08/16 19:57:12;;;;;;;6.38;4.57;;;;;;;29.52;45.30;100335.56;5126991;28;20381;-79
2022/08/16 19:59:40;;;;;;;8.57;6.45;;;;;;;29.51;45.81;100329.09;5127936;28;20047;-79
2022/08/16 20:02:18;;;;;;;11.43;5.15;;;;;;;29.32;46.47;100338.94;5127896;28;20051;-79
2022/08/16 20:05:04;;;;;;;7.47;4.70;;;;;;;29.30;46.44;100336.53;5127908;28;20622;-79
2022/08/16 20:07:32;;;;;;;4.38;2.92;;;;;;;29.36;46.82;100342.50;5114554;28;20051;-79
2022/08/16 20:10:00;;;;;;;7.47;2.90;;;;;;;29.12;47.69;100347.94;5114067;28;20048;-79
2022/08/16 20:12:28;;;;;;;5.13;3.15;;;;;;;29.14;47.68;100350.34;5113897;28;20066;-79
2022/08/16 20:14:56;;;;;;;6.22;4.00;;;;;;;29.17;47.98;100352.34;5087793;28;20048;-79
2022/08/16 20:17:24;;;;;;;8.20;4.00;;;;;;;29.11;47.79;100357.59;5109812;28;20047;-79
2022/08/16 20:19:51;;;;;;;7.07;3.42;;;;;;;29.03;47.59;100356.84;5112914;28;20046;-73
2022/08/16 20:22:20;;;;;;;5.45;3.00;;;;;;;29.04;47.99;100363.28;5113893;28;20040;-73
2022/08/16 20:25:10;;;;;;;5.63;3.30;;;;;;;29.04;48.09;100372.56;5114252;28;20055;-72
2022/08/16 20:27:39;;;;;;;4.20;3.03;;;;;;;28.89;48.80;100371.84;5114032;28;20048;-73
2022/08/16 20:30:08;;;;;;;4.22;2.97;;;;;;;29.02;48.92;100379.81;5113545;28;20052;-73
2022/08/16 20:32:36;;;;;;;7.70;4.75;;;;;;;28.78;49.77;100376.72;5113013;28;20093;-73
2022/08/16 20:35:07;;;;;;;8.88;3.30;;;;;;;28.86;49.72;100375.47;5114421;28;20055;-73
2022/08/16 20:37:36;;;;;;;3.35;3.00;;;;;;;28.94;49.90;100381.88;5114172;28;20043;-73
2022/08/16 20:40:08;;;;;;;2.88;2.67;;;;;;;29.01;49.45;100386.63;5113242;28;20050;-73
2022/08/16 20:43:03;;;;;;;4.07;2.95;;;;;;;28.87;50.31;100381.94;5114151;28;20046;-73
2022/08/16 20:45:32;;;;;;;2.58;2.35;;;;;;;28.72;49.95;100378.38;5106848;28;20056;-73
2022/08/16 20:47:59;;;;;;;4.10;2.95;;;;;;;28.52;51.08;100387.28;5113338;28;20044;-74
2022/08/16 20:50:28;;;;;;;2.90;2.60;;;;;;;28.57;51.08;100386.88;5113930;28;20031;-73
2022/08/16 20:52:55;;;;;;;5.97;2.90;;;;;;;28.55;51.78;100386.50;5113440;28;20057;-74
2022/08/16 20:55:23;;;;;;;3.92;2.80;;;;;;;28.62;52.36;100389.25;5103547;28;20059;-73
2022/08/16 20:57:55;;;;;;;5.18;3.10;;;;;;;28.51;52.34;100394.13;5113814;28;20040;-73
2022/08/16 21:00:23;;;;;;;3.05;2.75;;;;;;;28.39;52.31;100396.19;5112940;28;20051;-73
2022/08/16 21:02:51;;;;;;;3.40;2.60;;;;;;;28.30;52.61;100410.69;5113593;28;20044;-75
2022/08/16 21:05:23;;;;;;;3.58;2.75;;;;;;;28.37;52.80;100412.69;5113628;28;20050;-73
2022/08/16 21:07:57;;;;;;;3.75;2.58;;;;;;;28.46;52.83;100403.81;5112912;28;20524;-73
2022/08/16 21:10:28;;;;;;;4.65;2.85;;;;;;;28.44;52.88;100412.66;5113677;28;20052;-72
2022/08/16 21:13:00;;;;;;;2.45;2.25;;;;;;;28.37;52.41;100407.06;5113036;28;20036;-73
2022/08/16 21:15:31;;;;;;;3.03;2.72;;;;;;;28.49;51.94;100413.44;5112860;28;20056;-73
2022/08/16 21:17:59;;;;;;;3.25;2.78;;;;;;;28.35;52.36;100419.94;5111736;28;20484;-72
2022/08/16 21:20:28;;;;;;;5.13;2.53;;;;;;;28.30;52.66;100407.88;5112900;28;20065;-72
2022/08/16 21:22:58;;;;;;;3.05;2.47;;;;;;;28.37;52.47;100420.31;5112407;28;20043;-73
2022/08/16 21:25:27;;;;;;;2.88;2.58;;;;;;;28.24;53.02;100414.34;5113028;28;20047;-72
2022/08/16 21:27:57;;;;;;;4.55;2.47;;;;;;;28.31;52.58;100414.31;5111699;28;20040;-73
2022/08/16 21:30:45;;;;;;;4.47;3.13;;;;;;;28.14;52.89;100419.56;5112308;28;20055;-73
2022/08/16 21:33:19;;;;;;;4.47;2.40;;;;;;;28.25;52.66;100418.75;5111739;28;20050;-73
2022/08/16 21:35:48;;;;;;;3.38;2.33;;;;;;;28.16;53.56;100424.78;5106699;28;20055;-73
2022/08/16 21:38:16;;;;;;;3.40;2.50;;;;;;;28.25;53.07;100415.94;5109215;28;20044;-72
2022/08/16 21:40:59;;;;;;;2.78;2.58;;;;;;;28.26;52.63;100411.94;5093781;28;20040;-72
2022/08/16 21:43:30;;;;;;;4.80;2.95;;;;;;;28.21;53.28;100429.19;5095063;28;20040;-73
2022/08/16 21:46:01;;;;;;;2.95;2.47;;;;;;;28.21;52.77;100418.75;5091740;28;20059;-72
2022/08/16 21:48:29;;;;;;;4.82;3.00;;;;;;;28.23;53.00;100426.78;5093205;28;20040;-73
2022/08/16 21:51:02;;;;;;;3.83;2.78;;;;;;;28.16;53.48;100441.66;5092690;28;20051;-73
2022/08/16 21:53:31;;;;;;;4.00;2.63;;;;;;;28.18;52.30;100427.97;5092372;28;20055;-73
2022/08/16 21:56:01;;;;;;;6.30;2.85;;;;;;;28.17;53.29;100440.44;5091412;28;20047;-73
2022/08/16 21:58:30;;;;;;;3.55;2.42;;;;;;;28.30;53.27;100438.03;5091375;28;20048;-73
2022/08/16 22:00:59;;;;;;;3.92;2.17;;;;;;;28.12;53.40;100449.31;5096862;28;20470;-73
2022/08/16 22:03:31;;;;;;;2.60;2.40;;;;;;;28.11;53.34;100447.69;5096475;28;20048;-73
2022/08/16 22:06:00;;;;;;;5.32;2.80;;;;;;;28.09;54.05;100441.69;5091934;28;20055;-73
2022/08/16 22:08:42;;;;;;;2.85;2.35;;;;;;;28.14;53.24;100450.50;5108808;28;20051;-73
2022/08/16 22:11:19;;;;;;;4.10;2.70;;;;;;;28.05;53.05;100450.09;5112987;28;20731;-73
2022/08/16 22:13:47;;;;;;;5.85;3.08;;;;;;;28.01;53.84;100449.31;5112046;28;20493;-73
2022/08/16 22:16:33;;;;;;;4.40;2.00;;;;;;;28.09;53.17;100453.72;5111938;28;20047;-73
2022/08/16 22:19:01;;;;;;;4.18;2.45;;;;;;;28.05;52.98;100455.72;5111812;28;20050;-73
2022/08/16 22:21:30;;;;;;;3.10;2.42;;;;;;;28.03;53.26;100455.34;5111517;28;20047;-73
2022/08/16 22:23:58;;;;;;;4.28;2.63;;;;;;;28.07;54.09;100458.97;5104745;28;20055;-73
2022/08/16 22:26:30;;;;;;;3.50;2.33;;;;;;;28.11;53.25;100462.53;5112577;28;20381;-73
2022/08/16 22:29:00;;;;;;;2.85;2.20;;;;;;;28.03;53.24;100466.59;5110986;28;20056;-73
2022/08/16 22:31:29;;;;;;;3.05;2.75;;;;;;;27.99;53.42;100462.97;5098840;28;20056;-73
2022/08/16 22:34:00;;;;;;;4.65;2.00;;;;;;;28.12;53.06;100467.00;5111664;28;20047;-73
2022/08/16 22:36:30;;;;;;;2.65;2.45;;;;;;;28.07;53.35;100466.56;5111052;28;20044;-72
2022/08/16 22:39:00;;;;;;;4.70;2.58;;;;;;;28.10;53.83;100469.38;5111519;28;20055;-73
2022/08/16 22:41:30;;;;;;;3.00;2.50;;;;;;;27.93;53.07;100471.03;5110900;28;20040;-73
2022/08/16 22:44:00;;;;;;;2.65;2.45;;;;;;;28.06;53.41;100485.47;5111609;28;20043;-73
2022/08/16 22:46:29;;;;;;;2.30;2.17;;;;;;;28.02;52.85;100484.66;5111162;28;20043;-73
2022/08/16 22:48:56;;;;;;;2.08;1.95;;;;;;;28.08;53.34;100477.44;5111409;28;20040;-73
2022/08/16 22:51:27;;;;;;;3.03;2.38;;;;;;;28.17;52.97;100475.03;5111230;28;20043;-73
2022/08/16 22:53:55;;;;;;;3.08;2.45;;;;;;;28.19;52.44;100480.22;5111605;28;20047;-72
2022/08/16 22:56:24;;;;;;;2.80;2.55;;;;;;;27.98;53.64;100478.25;5112228;28;20054;-73
2022/08/16 22:58:53;;;;;;;4.75;2.95;;;;;;;28.02;53.16;100479.84;5107197;28;20050;-73
2022/08/16 23:01:23;;;;;;;4.60;2.60;;;;;;;28.06;53.92;100479.84;5110853;28;20040;-73
2022/08/16 23:03:54;;;;;;;3.20;2.75;;;;;;;28.01;53.10;100463.38;5111595;28;20039;-73
2022/08/16 23:06:23;;;;;;;3.70;2.60;;;;;;;27.99;53.33;100477.84;5111744;28;20066;-73
2022/08/16 23:08:51;;;;;;;3.10;2.60;;;;;;;27.86;53.12;100474.63;5111576;28;20055;-72
2022/08/16 23:11:21;;;;;;;3.42;2.40;;;;;;;27.93;53.31;100467.41;5110899;28;20043;-73
2022/08/16 23:13:55;;;;;;;2.70;2.50;;;;;;;27.87;52.97;100464.19;5110499;28;20489;-73
2022/08/16 23:16:29;;;;;;;2.72;2.47;;;;;;;27.77;53.19;100471.44;5112236;28;20047;-73
2022/08/16 23:19:18;;;;;;;2.72;2.53;;;;;;;27.86;52.89;100462.59;5110143;28;20046;-73
2022/08/16 23:21:47;;;;;;;3.60;2.78;;;;;;;27.76;52.94;100453.75;5111082;28;20054;-72
2022/08/16 23:24:19;;;;;;;4.63;2.88;;;;;;;27.76;52.82;100455.78;5110328;28;20062;-72
2022/08/16 23:26:47;;;;;;;3.08;2.13;;;;;;;27.79;53.44;100454.97;5111965;28;20063;-73
2022/08/16 23:29:19;;;;;;;2.78;2.55;;;;;;;27.84;52.68;100451.75;5111321;28;20048;-72
2022/08/16 23:31:55;;;;;;;4.10;2.60;;;;;;;27.81;52.81;100443.31;5111569;28;20043;-72
2022/08/16 23:34:25;;;;;;;5.05;2.60;;;;;;;27.68;53.62;100445.72;5111841;28;20393;-72
2022/08/16 23:36:53;;;;;;;3.47;2.78;;;;;;;27.67;53.65;100441.31;5111579;28;20062;-72
2022/08/16 23:39:21;;;;;;;3.15;2.38;;;;;;;27.62;54.07;100442.53;5111289;28;20044;-73
2022/08/16 23:41:49;;;;;;;3.03;2.67;;;;;;;27.54;53.79;100432.44;5112955;28;20039;-72
2022/08/16 23:44:17;;;;;;;4.35;3.00;;;;;;;27.63;54.05;100428.06;5115624;28;20367;-72
2022/08/16 23:47:05;;;;;;;5.22;3.00;;;;;;;27.57;54.46;100435.25;5114260;28;20052;-72
2022/08/16 23:49:33;;;;;;;3.38;2.60;;;;;;;27.41;54.57;100432.84;5114809;28;20055;-73
2022/08/16 23:52:21;;;;;;;3.08;2.22;;;;;;;27.41;54.69;100432.06;5114857;28;20058;-72
2022/08/16 23:55:09;;;;;;;3.95;2.83;;;;;;;27.53;54.38;100445.72;5114927;28;20066;-72